sensor_id;sensor_type;location;lat;lon;timestamp;P1;durP1;ratioP1;P2;durP2;ratioP2
31974;SDS011;18500;43.618;1.474;2022-09-12T05:48:07;370.55;;;343.95;;
31974;SDS011;18500;43.618;1.474;2022-09-12T05:50:32;269.13;;;252.52;;
31974;SDS011;18500;43.618;1.474;2022-09-12T05:52:58;305.05;;;285.90;;
31974;SDS011;18500;43.618;1.474;2022-09-12T05:55:24;289.90;;;272.50;;
31974;SDS011;18500;43.618;1.474;2022-09-12T05:57:50;260.40;;;243.70;;
31974;SDS011;18500;43.618;1.474;2022-09-12T06:00:16;243.02;;;227.98;;
31974;SDS011;18500;43.618;1.474;2022-09-12T06:02:43;231.60;;;217.55;;
31974;SDS011;18500;43.618;1.474;2022-09-12T06:05:08;285.42;;;266.80;;
31974;SDS011;18500;43.618;1.474;2022-09-12T06:07:34;255.15;;;239.45;;
31974;SDS011;18500;43.618;1.474;2022-09-12T06:10:01;272.70;;;256.00;;
31974;SDS011;18500;43.618;1.474;2022-09-12T06:12:27;438.15;;;410.02;;
31974;SDS011;18500;43.618;1.474;2022-09-12T06:14:54;256.20;;;240.40;;
31974;SDS011;18500;43.618;1.474;2022-09-12T06:17:20;263.52;;;247.32;;
31974;SDS011;18500;43.618;1.474;2022-09-12T06:19:46;249.23;;;233.63;;
31974;SDS011;18500;43.618;1.474;2022-09-12T06:22:15;270.13;;;253.80;;
31974;SDS011;18500;43.618;1.474;2022-09-12T06:24:42;290.98;;;272.98;;
31974;SDS011;18500;43.618;1.474;2022-09-12T06:27:07;283.98;;;266.08;;
31974;SDS011;18500;43.618;1.474;2022-09-12T06:29:33;271.90;;;254.85;;
31974;SDS011;18500;43.618;1.474;2022-09-12T06:31:58;273.88;;;257.73;;
31974;SDS011;18500;43.618;1.474;2022-09-12T06:34:24;308.55;;;289.45;;
31974;SDS011;18500;43.618;1.474;2022-09-12T06:36:51;318.02;;;298.85;;
31974;SDS011;18500;43.618;1.474;2022-09-12T06:39:20;423.00;;;393.90;;
31974;SDS011;18500;43.618;1.474;2022-09-12T06:41:48;337.75;;;317.30;;
31974;SDS011;18500;43.618;1.474;2022-09-12T06:44:16;379.77;;;355.95;;
31974;SDS011;18500;43.618;1.474;2022-09-12T06:46:45;339.23;;;318.20;;
31974;SDS011;18500;43.618;1.474;2022-09-12T06:49:11;452.17;;;423.40;;
31974;SDS011;18500;43.618;1.474;2022-09-12T06:51:37;336.58;;;316.30;;
31974;SDS011;18500;43.618;1.474;2022-09-12T06:54:05;373.92;;;351.15;;
31974;SDS011;18500;43.618;1.474;2022-09-12T06:56:31;372.83;;;350.70;;
31974;SDS011;18500;43.618;1.474;2022-09-12T06:58:57;382.05;;;358.52;;
31974;SDS011;18500;43.618;1.474;2022-09-12T07:01:27;409.92;;;384.70;;
31974;SDS011;18500;43.618;1.474;2022-09-12T07:03:57;429.75;;;402.77;;
31974;SDS011;18500;43.618;1.474;2022-09-12T07:06:25;548.92;;;512.83;;
31974;SDS011;18500;43.618;1.474;2022-09-12T07:08:59;451.27;;;423.50;;
31974;SDS011;18500;43.618;1.474;2022-09-12T07:11:28;455.77;;;427.15;;
31974;SDS011;18500;43.618;1.474;2022-09-12T07:13:57;448.20;;;420.02;;
31974;SDS011;18500;43.618;1.474;2022-09-12T07:16:23;560.13;;;521.65;;
31974;SDS011;18500;43.618;1.474;2022-09-12T07:18:53;550.30;;;512.75;;
31974;SDS011;18500;43.618;1.474;2022-09-12T07:21:23;611.47;;;569.80;;
31974;SDS011;18500;43.618;1.474;2022-09-12T07:23:49;512.35;;;479.50;;
31974;SDS011;18500;43.618;1.474;2022-09-12T07:26:19;590.00;;;549.97;;
31974;SDS011;18500;43.618;1.474;2022-09-12T07:28:48;590.88;;;551.35;;
31974;SDS011;18500;43.618;1.474;2022-09-12T07:31:17;578.28;;;539.40;;
31974;SDS011;18500;43.618;1.474;2022-09-12T07:33:45;640.17;;;595.35;;
31974;SDS011;18500;43.618;1.474;2022-09-12T07:36:15;582.83;;;543.08;;
31974;SDS011;18500;43.618;1.474;2022-09-12T07:38:42;648.58;;;602.72;;
31974;SDS011;18500;43.618;1.474;2022-09-12T07:43:37;556.28;;;519.53;;
31974;SDS011;18500;43.618;1.474;2022-09-12T07:46:03;580.72;;;541.95;;
31974;SDS011;18500;43.618;1.474;2022-09-12T07:48:29;571.28;;;533.72;;
31974;SDS011;18500;43.618;1.474;2022-09-12T07:50:58;596.72;;;556.63;;
31974;SDS011;18500;43.618;1.474;2022-09-12T07:53:26;578.95;;;540.38;;
31974;SDS011;18500;43.618;1.474;2022-09-12T07:55:55;599.88;;;559.03;;
31974;SDS011;18500;43.618;1.474;2022-09-12T07:58:22;624.00;;;581.42;;
31974;SDS011;18500;43.618;1.474;2022-09-12T08:00:48;725.83;;;673.58;;
31974;SDS011;18500;43.618;1.474;2022-09-12T08:03:14;745.55;;;690.22;;
31974;SDS011;18500;43.618;1.474;2022-09-12T08:05:40;748.33;;;692.60;;
31974;SDS011;18500;43.618;1.474;2022-09-12T08:08:06;792.63;;;731.67;;
31974;SDS011;18500;43.618;1.474;2022-09-12T08:10:32;938.47;;;858.53;;
31974;SDS011;18500;43.618;1.474;2022-09-12T08:12:58;893.95;;;819.05;;
31974;SDS011;18500;43.618;1.474;2022-09-12T08:15:24;931.20;;;852.20;;
31974;SDS011;18500;43.618;1.474;2022-09-12T08:17:49;873.22;;;803.00;;
31974;SDS011;18500;43.618;1.474;2022-09-12T08:20:15;842.65;;;775.55;;
31974;SDS011;18500;43.618;1.474;2022-09-12T08:22:42;931.42;;;852.53;;
31974;SDS011;18500;43.618;1.474;2022-09-12T08:25:08;874.67;;;804.38;;
31974;SDS011;18500;43.618;1.474;2022-09-12T08:27:34;972.10;;;887.75;;
31974;SDS011;18500;43.618;1.474;2022-09-12T08:30:00;903.17;;;828.90;;
31974;SDS011;18500;43.618;1.474;2022-09-12T08:32:25;1072.53;;;965.47;;
31974;SDS011;18500;43.618;1.474;2022-09-12T08:34:51;986.47;;;900.47;;
31974;SDS011;18500;43.618;1.474;2022-09-12T08:37:17;1062.00;;;960.92;;
31974;SDS011;18500;43.618;1.474;2022-09-12T08:39:43;1004.22;;;917.35;;
31974;SDS011;18500;43.618;1.474;2022-09-12T08:42:09;1018.05;;;927.65;;
31974;SDS011;18500;43.618;1.474;2022-09-12T08:47:25;1054.60;;;957.75;;
31974;SDS011;18500;43.618;1.474;2022-09-12T08:52:33;1043.95;;;950.17;;
31974;SDS011;18500;43.618;1.474;2022-09-12T08:55:01;1064.60;;;963.33;;
31974;SDS011;18500;43.618;1.474;2022-09-12T08:57:29;1038.65;;;943.72;;
31974;SDS011;18500;43.618;1.474;2022-09-12T08:59:54;1062.82;;;963.45;;
31974;SDS011;18500;43.618;1.474;2022-09-12T09:10:47;1123.05;;;999.90;;
31974;SDS011;18500;43.618;1.474;2022-09-12T09:16:35;1127.82;;;999.90;;
31974;SDS011;18500;43.618;1.474;2022-09-12T09:19:10;1132.47;;;999.90;;
31974;SDS011;18500;43.618;1.474;2022-09-12T09:21:39;1122.00;;;998.70;;
31974;SDS011;18500;43.618;1.474;2022-09-12T09:24:10;1122.28;;;998.83;;
31974;SDS011;18500;43.618;1.474;2022-09-12T09:29:13;1123.05;;;999.30;;
31974;SDS011;18500;43.618;1.474;2022-09-12T09:31:41;1109.03;;;993.30;;
31974;SDS011;18500;43.618;1.474;2022-09-12T09:34:51;1082.85;;;973.90;;
31974;SDS011;18500;43.618;1.474;2022-09-12T09:42:40;1086.20;;;980.05;;
31974;SDS011;18500;43.618;1.474;2022-09-12T09:45:15;1039.72;;;942.15;;
31974;SDS011;18500;43.618;1.474;2022-09-12T09:50:25;1027.90;;;930.92;;
31974;SDS011;18500;43.618;1.474;2022-09-12T09:52:52;962.97;;;873.67;;
31974;SDS011;18500;43.618;1.474;2022-09-12T09:55:22;1024.90;;;926.88;;
31974;SDS011;18500;43.618;1.474;2022-09-12T09:57:52;971.25;;;882.03;;
31974;SDS011;18500;43.618;1.474;2022-09-12T10:00:21;1017.03;;;921.05;;
31974;SDS011;18500;43.618;1.474;2022-09-12T10:02:57;956.58;;;871.15;;
31974;SDS011;18500;43.618;1.474;2022-09-12T10:05:27;871.25;;;792.88;;
31974;SDS011;18500;43.618;1.474;2022-09-12T10:07:53;815.60;;;744.60;;
31974;SDS011;18500;43.618;1.474;2022-09-12T10:10:19;865.92;;;789.13;;
31974;SDS011;18500;43.618;1.474;2022-09-12T10:12:48;855.65;;;773.80;;
31974;SDS011;18500;43.618;1.474;2022-09-12T10:15:24;911.50;;;825.97;;
31974;SDS011;18500;43.618;1.474;2022-09-12T10:17:51;874.42;;;795.58;;
31974;SDS011;18500;43.618;1.474;2022-09-12T10:25:53;601.60;;;551.83;;
31974;SDS011;18500;43.618;1.474;2022-09-12T10:28:22;644.67;;;594.95;;
31974;SDS011;18500;43.618;1.474;2022-09-12T10:30:52;639.60;;;589.58;;
31974;SDS011;18500;43.618;1.474;2022-09-12T10:33:18;780.00;;;710.15;;
31974;SDS011;18500;43.618;1.474;2022-09-12T10:35:46;846.33;;;768.17;;
31974;SDS011;18500;43.618;1.474;2022-09-12T10:38:20;904.42;;;819.92;;
31974;SDS011;18500;43.618;1.474;2022-09-12T10:43:29;855.60;;;777.97;;
31974;SDS011;18500;43.618;1.474;2022-09-12T10:48:43;934.55;;;845.33;;
31974;SDS011;18500;43.618;1.474;2022-09-12T10:51:24;955.60;;;863.80;;
31974;SDS011;18500;43.618;1.474;2022-09-12T10:53:56;971.85;;;873.05;;
31974;SDS011;18500;43.618;1.474;2022-09-12T10:59:05;904.75;;;821.38;;
31974;SDS011;18500;43.618;1.474;2022-09-12T11:07:01;997.33;;;893.15;;
31974;SDS011;18500;43.618;1.474;2022-09-12T11:09:57;948.92;;;860.53;;
31974;SDS011;18500;43.618;1.474;2022-09-12T11:24:46;925.55;;;840.47;;
31974;SDS011;18500;43.618;1.474;2022-09-12T11:30:31;959.10;;;867.75;;
31974;SDS011;18500;43.618;1.474;2022-09-12T11:35:51;1202.78;;;994.90;;
31974;SDS011;18500;43.618;1.474;2022-09-12T11:41:31;1110.57;;;973.83;;
31974;SDS011;18500;43.618;1.474;2022-09-12T11:46:41;1052.35;;;942.53;;
31974;SDS011;18500;43.618;1.474;2022-09-12T11:56:45;1003.95;;;901.47;;
31974;SDS011;18500;43.618;1.474;2022-09-12T11:59:14;1051.30;;;939.58;;
31974;SDS011;18500;43.618;1.474;2022-09-12T12:01:50;993.80;;;892.92;;
31974;SDS011;18500;43.618;1.474;2022-09-12T12:04:19;1003.17;;;901.92;;
31974;SDS011;18500;43.618;1.474;2022-09-12T12:06:53;932.10;;;847.10;;
31974;SDS011;18500;43.618;1.474;2022-09-12T12:09:28;1069.10;;;954.03;;
31974;SDS011;18500;43.618;1.474;2022-09-12T12:11:55;935.88;;;848.63;;
31974;SDS011;18500;43.618;1.474;2022-09-12T12:14:45;936.17;;;848.25;;
31974;SDS011;18500;43.618;1.474;2022-09-12T12:17:15;1058.35;;;941.97;;
31974;SDS011;18500;43.618;1.474;2022-09-12T12:22:20;1041.05;;;931.50;;
31974;SDS011;18500;43.618;1.474;2022-09-12T12:24:54;953.50;;;864.13;;
31974;SDS011;18500;43.618;1.474;2022-09-12T12:38:03;926.65;;;840.15;;
31974;SDS011;18500;43.618;1.474;2022-09-12T12:40:48;939.13;;;852.40;;
31974;SDS011;18500;43.618;1.474;2022-09-12T12:43:27;933.15;;;847.67;;
31974;SDS011;18500;43.618;1.474;2022-09-12T12:46:00;991.50;;;893.10;;
31974;SDS011;18500;43.618;1.474;2022-09-12T12:48:28;959.63;;;861.90;;
31974;SDS011;18500;43.618;1.474;2022-09-12T12:53:56;914.83;;;830.75;;
31974;SDS011;18500;43.618;1.474;2022-09-12T12:58:57;958.95;;;856.17;;
31974;SDS011;18500;43.618;1.474;2022-09-12T13:01:25;1023.08;;;915.03;;
31974;SDS011;18500;43.618;1.474;2022-09-12T13:03:53;953.53;;;860.83;;
31974;SDS011;18500;43.618;1.474;2022-09-12T13:09:06;946.00;;;854.95;;
31974;SDS011;18500;43.618;1.474;2022-09-12T13:11:37;976.03;;;878.85;;
31974;SDS011;18500;43.618;1.474;2022-09-12T13:14:06;957.40;;;866.92;;
31974;SDS011;18500;43.618;1.474;2022-09-12T13:16:55;923.63;;;836.85;;
31974;SDS011;18500;43.618;1.474;2022-09-12T13:19:31;875.75;;;798.13;;
31974;SDS011;18500;43.618;1.474;2022-09-12T13:22:04;888.50;;;811.47;;
31974;SDS011;18500;43.618;1.474;2022-09-12T13:24:31;900.55;;;821.35;;
31974;SDS011;18500;43.618;1.474;2022-09-12T13:26:58;972.92;;;874.75;;
31974;SDS011;18500;43.618;1.474;2022-09-12T13:29:26;1014.97;;;912.25;;
31974;SDS011;18500;43.618;1.474;2022-09-12T13:31:55;1103.72;;;959.33;;
31974;SDS011;18500;43.618;1.474;2022-09-12T13:34:24;1062.10;;;942.90;;
31974;SDS011;18500;43.618;1.474;2022-09-12T13:42:52;949.80;;;858.28;;
31974;SDS011;18500;43.618;1.474;2022-09-12T13:45:34;1037.60;;;928.38;;
31974;SDS011;18500;43.618;1.474;2022-09-12T13:48:02;883.20;;;803.45;;
31974;SDS011;18500;43.618;1.474;2022-09-12T13:50:30;871.50;;;792.50;;
31974;SDS011;18500;43.618;1.474;2022-09-12T13:53:03;1019.05;;;909.72;;
31974;SDS011;18500;43.618;1.474;2022-09-12T13:55:32;910.55;;;824.88;;
31974;SDS011;18500;43.618;1.474;2022-09-12T13:58:04;1003.47;;;897.00;;
31974;SDS011;18500;43.618;1.474;2022-09-12T14:00:38;1013.05;;;907.60;;
31974;SDS011;18500;43.618;1.474;2022-09-12T14:03:13;1040.43;;;921.20;;
31974;SDS011;18500;43.618;1.474;2022-09-12T14:06:09;1112.13;;;960.13;;
31974;SDS011;18500;43.618;1.474;2022-09-12T14:08:39;1031.05;;;920.28;;
31974;SDS011;18500;43.618;1.474;2022-09-12T14:11:07;1165.72;;;965.95;;
31974;SDS011;18500;43.618;1.474;2022-09-12T14:13:35;1131.90;;;961.17;;
31974;SDS011;18500;43.618;1.474;2022-09-12T14:16:03;1346.70;;;999.90;;
31974;SDS011;18500;43.618;1.474;2022-09-12T14:18:33;1419.03;;;999.90;;
31974;SDS011;18500;43.618;1.474;2022-09-12T14:21:07;1479.30;;;999.90;;
31974;SDS011;18500;43.618;1.474;2022-09-12T14:23:34;1212.57;;;997.60;;
31974;SDS011;18500;43.618;1.474;2022-09-12T14:26:08;990.67;;;888.97;;
31974;SDS011;18500;43.618;1.474;2022-09-12T14:28:40;1036.78;;;917.08;;
31974;SDS011;18500;43.618;1.474;2022-09-12T14:33:46;1028.88;;;917.90;;
31974;SDS011;18500;43.618;1.474;2022-09-12T14:36:18;965.55;;;864.63;;
31974;SDS011;18500;43.618;1.474;2022-09-12T14:38:57;1424.57;;;999.90;;
31974;SDS011;18500;43.618;1.474;2022-09-12T14:41:29;829.80;;;755.05;;
31974;SDS011;18500;43.618;1.474;2022-09-12T14:44:00;848.53;;;769.50;;
31974;SDS011;18500;43.618;1.474;2022-09-12T14:46:35;809.13;;;730.47;;
31974;SDS011;18500;43.618;1.474;2022-09-12T14:49:12;1022.28;;;893.88;;
31974;SDS011;18500;43.618;1.474;2022-09-12T14:51:56;849.58;;;767.88;;
31974;SDS011;18500;43.618;1.474;2022-09-12T14:56:57;884.17;;;799.13;;
31974;SDS011;18500;43.618;1.474;2022-09-12T14:59:29;817.72;;;744.03;;
31974;SDS011;18500;43.618;1.474;2022-09-12T15:02:14;815.88;;;741.83;;
31974;SDS011;18500;43.618;1.474;2022-09-12T15:04:44;800.97;;;731.33;;
31974;SDS011;18500;43.618;1.474;2022-09-12T15:09:58;848.75;;;769.17;;
31974;SDS011;18500;43.618;1.474;2022-09-12T15:12:27;871.55;;;785.92;;
31974;SDS011;18500;43.618;1.474;2022-09-12T15:14:55;877.55;;;794.10;;
31974;SDS011;18500;43.618;1.474;2022-09-12T15:17:38;854.83;;;774.58;;
31974;SDS011;18500;43.618;1.474;2022-09-12T15:20:03;875.10;;;793.80;;
31974;SDS011;18500;43.618;1.474;2022-09-12T15:22:30;880.10;;;795.42;;
31974;SDS011;18500;43.618;1.474;2022-09-12T15:24:57;912.45;;;822.20;;
31974;SDS011;18500;43.618;1.474;2022-09-12T15:27:23;889.33;;;803.15;;
31974;SDS011;18500;43.618;1.474;2022-09-12T15:29:50;890.92;;;804.00;;
31974;SDS011;18500;43.618;1.474;2022-09-12T15:32:27;907.85;;;820.30;;
31974;SDS011;18500;43.618;1.474;2022-09-12T15:34:54;947.95;;;851.70;;
31974;SDS011;18500;43.618;1.474;2022-09-12T15:37:21;987.75;;;886.30;;
31974;SDS011;18500;43.618;1.474;2022-09-12T15:39:48;1032.25;;;921.60;;
31974;SDS011;18500;43.618;1.474;2022-09-12T15:42:14;1051.93;;;939.95;;
31974;SDS011;18500;43.618;1.474;2022-09-12T15:44:41;1084.13;;;968.05;;
31974;SDS011;18500;43.618;1.474;2022-09-12T15:47:12;1058.80;;;948.08;;
31974;SDS011;18500;43.618;1.474;2022-09-12T15:52:05;1026.68;;;922.63;;
31974;SDS011;18500;43.618;1.474;2022-09-12T15:54:31;1109.75;;;989.80;;
31974;SDS011;18500;43.618;1.474;2022-09-12T15:56:57;1123.05;;;997.65;;
31974;SDS011;18500;43.618;1.474;2022-09-12T15:59:22;1096.68;;;980.60;;
31974;SDS011;18500;43.618;1.474;2022-09-12T16:01:48;1148.07;;;999.90;;
31974;SDS011;18500;43.618;1.474;2022-09-12T16:04:20;1144.05;;;999.90;;
31974;SDS011;18500;43.618;1.474;2022-09-12T16:06:48;1140.85;;;999.90;;
31974;SDS011;18500;43.618;1.474;2022-09-12T16:09:16;1118.65;;;997.83;;
31974;SDS011;18500;43.618;1.474;2022-09-12T16:11:42;1135.55;;;999.90;;
31974;SDS011;18500;43.618;1.474;2022-09-12T16:14:09;1124.55;;;999.90;;
31974;SDS011;18500;43.618;1.474;2022-09-12T16:16:38;1126.03;;;999.90;;
31974;SDS011;18500;43.618;1.474;2022-09-12T16:19:04;1139.60;;;999.90;;
31974;SDS011;18500;43.618;1.474;2022-09-12T16:21:30;1134.82;;;999.90;;
31974;SDS011;18500;43.618;1.474;2022-09-12T16:23:56;1144.55;;;999.90;;
31974;SDS011;18500;43.618;1.474;2022-09-12T16:26:21;1143.65;;;999.90;;
31974;SDS011;18500;43.618;1.474;2022-09-12T16:28:52;1143.45;;;999.90;;
31974;SDS011;18500;43.618;1.474;2022-09-12T16:31:19;1186.75;;;999.90;;
31974;SDS011;18500;43.618;1.474;2022-09-12T16:33:45;1148.40;;;999.90;;
31974;SDS011;18500;43.618;1.474;2022-09-12T16:36:12;1156.53;;;999.90;;
31974;SDS011;18500;43.618;1.474;2022-09-12T16:38:39;1159.40;;;999.90;;
31974;SDS011;18500;43.618;1.474;2022-09-12T16:41:09;1170.22;;;999.90;;
31974;SDS011;18500;43.618;1.474;2022-09-12T16:43:35;1169.47;;;999.90;;
31974;SDS011;18500;43.618;1.474;2022-09-12T16:46:06;1200.57;;;999.90;;
31974;SDS011;18500;43.618;1.474;2022-09-12T16:48:36;1144.28;;;999.90;;
31974;SDS011;18500;43.618;1.474;2022-09-12T16:51:05;1083.95;;;982.08;;
31974;SDS011;18500;43.618;1.474;2022-09-12T16:53:32;1077.32;;;975.95;;
31974;SDS011;18500;43.618;1.474;2022-09-12T16:55:58;1045.47;;;951.38;;
31974;SDS011;18500;43.618;1.474;2022-09-12T16:58:24;1043.65;;;947.08;;
31974;SDS011;18500;43.618;1.474;2022-09-12T17:01:04;993.50;;;908.55;;
31974;SDS011;18500;43.618;1.474;2022-09-12T17:03:31;1008.87;;;921.83;;
31974;SDS011;18500;43.618;1.474;2022-09-12T17:08:25;904.40;;;832.63;;
31974;SDS011;18500;43.618;1.474;2022-09-12T17:10:52;939.58;;;859.40;;
31974;SDS011;18500;43.618;1.474;2022-09-12T17:13:17;809.70;;;748.33;;
31974;SDS011;18500;43.618;1.474;2022-09-12T17:15:43;795.33;;;735.55;;
31974;SDS011;18500;43.618;1.474;2022-09-12T17:18:09;753.22;;;699.25;;
31974;SDS011;18500;43.618;1.474;2022-09-12T17:20:35;697.80;;;649.45;;
31974;SDS011;18500;43.618;1.474;2022-09-12T17:23:00;652.47;;;608.00;;
31974;SDS011;18500;43.618;1.474;2022-09-12T17:25:26;605.10;;;564.22;;
31974;SDS011;18500;43.618;1.474;2022-09-12T17:27:52;559.30;;;522.92;;
31974;SDS011;18500;43.618;1.474;2022-09-12T17:30:17;571.97;;;533.47;;
31974;SDS011;18500;43.618;1.474;2022-09-12T17:32:43;588.75;;;549.15;;
31974;SDS011;18500;43.618;1.474;2022-09-12T17:35:09;640.60;;;594.83;;
31974;SDS011;18500;43.618;1.474;2022-09-12T17:37:35;677.15;;;627.90;;
31974;SDS011;18500;43.618;1.474;2022-09-12T17:40:01;668.38;;;619.60;;
31974;SDS011;18500;43.618;1.474;2022-09-12T17:42:27;529.65;;;494.70;;
31974;SDS011;18500;43.618;1.474;2022-09-12T17:44:53;503.52;;;471.20;;
31974;SDS011;18500;43.618;1.474;2022-09-12T17:47:22;504.73;;;471.95;;
31974;SDS011;18500;43.618;1.474;2022-09-12T17:49:47;514.20;;;481.38;;
31974;SDS011;18500;43.618;1.474;2022-09-12T17:52:15;527.88;;;493.77;;
31974;SDS011;18500;43.618;1.474;2022-09-12T17:54:41;498.98;;;466.55;;
31974;SDS011;18500;43.618;1.474;2022-09-12T17:57:07;487.92;;;456.63;;
31974;SDS011;18500;43.618;1.474;2022-09-12T17:59:32;705.40;;;648.75;;
31974;SDS011;18500;43.618;1.474;2022-09-12T18:01:58;492.85;;;460.27;;
31974;SDS011;18500;43.618;1.474;2022-09-12T18:04:40;482.13;;;450.20;;
31974;SDS011;18500;43.618;1.474;2022-09-12T18:07:15;591.95;;;549.15;;
31974;SDS011;18500;43.618;1.474;2022-09-12T18:09:44;445.20;;;416.75;;
31974;SDS011;18500;43.618;1.474;2022-09-12T18:12:14;530.60;;;494.08;;
31974;SDS011;18500;43.618;1.474;2022-09-12T18:14:40;624.28;;;578.35;;
31974;SDS011;18500;43.618;1.474;2022-09-12T18:17:05;438.30;;;410.13;;
31974;SDS011;18500;43.618;1.474;2022-09-12T18:19:33;374.95;;;351.52;;
31974;SDS011;18500;43.618;1.474;2022-09-12T18:21:59;541.38;;;501.27;;
31974;SDS011;18500;43.618;1.474;2022-09-12T18:24:26;380.63;;;355.75;;
31974;SDS011;18500;43.618;1.474;2022-09-12T18:26:52;363.73;;;339.83;;
31974;SDS011;18500;43.618;1.474;2022-09-12T18:29:20;377.13;;;352.60;;
31974;SDS011;18500;43.618;1.474;2022-09-12T18:31:47;410.13;;;383.45;;
31974;SDS011;18500;43.618;1.474;2022-09-12T18:34:13;393.13;;;367.60;;
31974;SDS011;18500;43.618;1.474;2022-09-12T18:36:41;399.73;;;373.13;;
31974;SDS011;18500;43.618;1.474;2022-09-12T18:39:12;537.13;;;497.38;;
31974;SDS011;18500;43.618;1.474;2022-09-12T18:41:38;367.05;;;343.00;;
31974;SDS011;18500;43.618;1.474;2022-09-12T18:44:04;391.45;;;365.10;;
31974;SDS011;18500;43.618;1.474;2022-09-12T18:46:31;349.05;;;326.55;;
31974;SDS011;18500;43.618;1.474;2022-09-12T18:48:57;403.52;;;376.90;;
31974;SDS011;18500;43.618;1.474;2022-09-12T18:51:28;354.13;;;330.95;;
31974;SDS011;18500;43.618;1.474;2022-09-12T18:53:57;361.63;;;338.13;;
31974;SDS011;18500;43.618;1.474;2022-09-12T18:56:25;341.70;;;319.75;;
31974;SDS011;18500;43.618;1.474;2022-09-12T18:58:56;346.48;;;324.25;;
31974;SDS011;18500;43.618;1.474;2022-09-12T19:01:26;348.98;;;325.92;;
31974;SDS011;18500;43.618;1.474;2022-09-12T19:03:53;335.43;;;312.60;;
31974;SDS011;18500;43.618;1.474;2022-09-12T19:06:29;310.08;;;290.05;;
31974;SDS011;18500;43.618;1.474;2022-09-12T19:08:56;337.63;;;316.10;;
31974;SDS011;18500;43.618;1.474;2022-09-12T19:11:24;359.55;;;336.70;;
31974;SDS011;18500;43.618;1.474;2022-09-12T19:13:51;299.60;;;280.15;;
31974;SDS011;18500;43.618;1.474;2022-09-12T19:16:18;317.73;;;297.25;;
31974;SDS011;18500;43.618;1.474;2022-09-12T19:18:47;286.25;;;268.13;;
31974;SDS011;18500;43.618;1.474;2022-09-12T19:21:17;300.45;;;280.83;;
31974;SDS011;18500;43.618;1.474;2022-09-12T19:23:46;396.23;;;369.95;;
31974;SDS011;18500;43.618;1.474;2022-09-12T19:26:12;272.50;;;254.35;;
31974;SDS011;18500;43.618;1.474;2022-09-12T19:28:39;310.33;;;290.95;;
31974;SDS011;18500;43.618;1.474;2022-09-12T19:31:06;273.83;;;256.67;;
31974;SDS011;18500;43.618;1.474;2022-09-12T19:33:33;268.38;;;251.80;;
31974;SDS011;18500;43.618;1.474;2022-09-12T19:35:59;288.60;;;270.02;;
31974;SDS011;18500;43.618;1.474;2022-09-12T19:38:27;253.80;;;237.80;;
31974;SDS011;18500;43.618;1.474;2022-09-12T19:40:56;259.33;;;242.63;;
31974;SDS011;18500;43.618;1.474;2022-09-12T19:43:23;254.18;;;238.27;;
31974;SDS011;18500;43.618;1.474;2022-09-12T19:45:49;242.10;;;226.48;;
31974;SDS011;18500;43.618;1.474;2022-09-12T19:48:16;251.15;;;235.20;;
31974;SDS011;18500;43.618;1.474;2022-09-12T19:50:42;231.35;;;216.07;;
31974;SDS011;18500;43.618;1.474;2022-09-12T19:53:08;281.63;;;262.63;;
31974;SDS011;18500;43.618;1.474;2022-09-12T19:55:34;309.25;;;289.98;;
31974;SDS011;18500;43.618;1.474;2022-09-12T19:58:00;285.55;;;267.85;;
31974;SDS011;18500;43.618;1.474;2022-09-12T20:00:26;249.00;;;233.57;;
31974;SDS011;18500;43.618;1.474;2022-09-12T20:02:52;266.55;;;250.15;;
31974;SDS011;18500;43.618;1.474;2022-09-12T20:05:21;222.85;;;208.98;;
31974;SDS011;18500;43.618;1.474;2022-09-12T20:07:46;238.32;;;222.48;;
31974;SDS011;18500;43.618;1.474;2022-09-12T20:10:13;199.88;;;187.05;;
31974;SDS011;18500;43.618;1.474;2022-09-12T20:12:39;189.35;;;177.45;;
31974;SDS011;18500;43.618;1.474;2022-09-12T20:15:04;216.35;;;202.80;;
31974;SDS011;18500;43.618;1.474;2022-09-12T20:17:32;185.52;;;173.77;;
31974;SDS011;18500;43.618;1.474;2022-09-12T20:19:58;212.85;;;199.30;;
31974;SDS011;18500;43.618;1.474;2022-09-12T20:22:23;202.77;;;189.35;;
31974;SDS011;18500;43.618;1.474;2022-09-12T20:24:49;171.82;;;160.65;;
